Latest Weather Observations for Tatura

IDV60801

Issued at 4:31 pm EDT Tuesday 27 January 2015 (issued every 30 minutes, with the page automatically refreshed every 10 minutes)

About weather observations | Map of weather stations | Latest weather observations for VIC | Other Formats
Station Details ID: 081049 Name: TATURA INST SUSTAINABLE AG Lat: -36.44 Lon: 145.27 Height: 114.0 m
Data from the previous 72 hours. | See also: Recent months at Tatura
Date/Time
EDT
Temp
°C
App
Temp
°C
Dew
Point
Rel
Hum
%
Delta-T
°C
Wind Press
QNH
hPa
Press
MSL
hPa
Rain
since 9 am
mm
Dir
 
Spd
km/h
Gust
km/h
Spd
kts
Gust
kts
27/04:30pm 25.6 19.8 6.3 29 10.1 S 26 39 14 21 - - 0.0
27/04:00pm 25.4 19.1 5.6 28 10.2 S 28 44 15 24 - - 0.0
27/03:42pm 25.5 19.3 6.2 29 10.0 S 28 46 15 25 - - 0.0
27/03:41pm 25.5 19.3 6.2 29 10.0 S 28 46 15 25 - - 0.0
27/03:30pm 25.8 20.5 6.9 30 10.0 S 24 41 13 22 - - 0.0
27/03:00pm 25.7 20.3 6.3 29 10.1 SSW 24 37 13 20 - - 0.0
27/02:30pm 25.4 20.8 6.6 30 9.8 S 20 30 11 16 - - 0.0
27/02:00pm 25.4 21.7 8.0 33 9.3 SSW 17 30 9 16 - - 0.0
27/01:30pm 25.1 21.4 8.1 34 9.1 S 17 30 9 16 - - 0.0
27/01:00pm 23.6 18.4 7.3 35 8.5 SSW 24 33 13 18 - - 0.0
27/12:30pm 23.5 19.4 8.0 37 8.2 S 19 32 10 17 - - 0.0
27/12:00pm 22.8 18.2 8.1 39 7.8 S 22 33 12 18 - - 0.0
27/11:30am 22.3 18.1 8.1 40 7.5 S 20 32 11 17 - - 0.0
27/11:00am 21.0 17.4 8.3 44 6.7 SSE 17 24 9 13 - - 0.0
27/10:30am 20.0 15.9 7.7 45 6.4 SSE 19 32 10 17 - - 0.0
27/10:00am 19.2 14.4 7.3 46 6.1 SSE 22 32 12 17 - - 0.0
27/09:30am 17.8 12.9 7.0 49 5.4 SSE 22 33 12 18 - - 0.0
27/09:00am 16.3 11.0 7.0 54 4.6 SSE 24 35 13 19 - - 0.0
27/08:30am 14.6 9.2 6.4 58 4.0 SSE 24 37 13 20 - - 0.0
27/08:00am 13.7 9.1 6.3 61 3.6 SSE 20 30 11 16 - - 0.0
27/07:30am 12.6 7.9 6.0 64 3.1 SSE 20 32 11 17 - - 0.0
27/07:00am 11.6 7.0 5.7 67 2.8 SSE 19 26 10 14 - - 0.0
27/06:30am 11.1 6.8 5.4 68 2.6 SSE 17 22 9 12 - - 0.0
27/06:00am 11.1 7.2 5.4 68 2.6 SSE 15 22 8 12 - - 0.0
27/05:30am 11.4 7.1 5.3 66 2.8 SSE 17 22 9 12 - - 0.0
27/05:00am 11.4 7.5 5.3 66 2.8 SSE 15 20 8 11 - - 0.0
27/04:30am 11.8 7.5 5.2 64 3.1 SSE 17 24 9 13 - - 0.0
27/04:00am 12.0 7.7 5.4 64 3.1 SSE 17 22 9 12 - - 0.0
27/03:30am 12.3 8.1 5.5 63 3.2 SSE 17 24 9 13 - - 0.0
27/03:00am 12.6 8.4 5.5 62 3.3 SSE 17 24 9 13 - - 0.0
27/02:30am 12.8 8.6 5.5 61 3.4 SSE 17 24 9 13 - - 0.0
27/02:00am 12.9 8.2 5.3 60 3.6 SSE 19 26 10 14 - - 0.0
27/01:30am 13.3 9.0 5.2 58 3.8 SSE 17 24 9 13 - - 0.0
27/01:00am 13.6 8.7 5.0 56 4.0 SSE 20 28 11 15 - - 0.0
27/12:30am 13.8 9.0 4.9 55 4.2 S 19 26 10 14 - - 0.0
27/12:00am 14.3 9.4 4.9 53 4.4 S 20 28 11 15 - - 0.0
 
Date/Time
EDT
Temp
°C
App
Temp
°C
Dew
Point
Rel
Hum
%
Delta-T
°C
Wind Press
QNH
hPa
Press
MSL
hPa
Rain
since 9 am
mm
Dir
 
Spd
km/h
Gust
km/h
Spd
kts
Gust
kts
26/11:30pm 14.7 9.4 5.0 52 4.6 S 22 35 12 19 - - 0.0
26/11:00pm 15.1 9.5 5.3 52 4.7 S 24 35 13 19 - - 0.0
26/10:30pm 15.6 10.0 5.5 51 4.8 S 24 32 13 17 - - 0.0
26/10:00pm 16.3 10.7 5.6 49 5.2 S 24 33 13 18 - - 0.0
26/09:30pm 16.9 10.9 5.5 47 5.5 S 26 43 14 23 - - 0.0
26/09:00pm 17.5 12.2 4.8 43 6.1 S 22 39 12 21 - - 0.0
26/08:30pm 18.4 13.0 4.6 40 6.6 SSW 22 33 12 18 - - 0.0
26/08:00pm 19.7 13.8 3.8 35 7.6 SSW 24 37 13 20 - - 0.0
26/07:30pm 20.6 14.5 2.9 31 8.4 SSW 24 37 13 20 - - 0.0
26/07:00pm 21.5 15.5 3.2 30 8.8 SSW 24 37 13 20 - - 0.0
26/06:30pm 21.6 15.6 3.3 30 8.8 SSW 24 39 13 21 - - 0.0
26/06:00pm 22.1 15.7 3.3 29 9.1 SSW 26 39 14 21 - - 0.0
26/05:30pm 22.3 16.2 2.9 28 9.3 SSW 24 39 13 21 - - 0.0
26/05:00pm 22.5 16.5 3.1 28 9.3 SSW 24 35 13 19 - - 0.0
26/04:30pm 22.5 16.3 2.1 26 9.6 SW 24 33 13 18 - - 0.0
26/04:00pm 22.6 16.5 2.7 27 9.5 S 24 37 13 20 - - 0.0
26/03:30pm 22.8 17.1 2.8 27 9.6 SW 22 32 12 17 - - 0.0
26/03:00pm 21.5 15.2 1.7 27 9.2 S 24 33 13 18 - - 0.0
26/02:30pm 21.6 15.8 2.3 28 9.1 SSW 22 35 12 19 - - 0.0
26/02:00pm 21.6 16.0 3.3 30 8.8 SSW 22 32 12 17 - - 0.0
26/01:30pm 20.8 15.5 2.1 29 8.7 S 19 33 10 18 - - 0.0
26/01:00pm 20.1 14.2 1.5 29 8.5 S 22 35 12 19 - - 0.0
26/12:30pm 19.9 13.9 3.2 33 7.9 S 24 35 13 19 - - 0.0
26/12:00pm 20.2 14.7 3.9 34 7.8 SSW 22 28 12 15 - - 0.0
26/11:30am 19.1 14.5 3.7 36 7.3 S 17 24 9 13 - - 0.0
26/11:00am 17.7 12.4 2.8 37 6.9 SSW 20 24 11 13 - - 0.0
26/10:30am 17.2 12.8 4.9 44 5.9 S 17 26 9 14 - - 0.0
26/10:00am 16.7 12.1 5.6 48 5.4 SSE 19 28 10 15 - - 0.0
26/09:30am 15.5 10.9 5.4 51 4.8 SSE 19 26 10 14 - - 0.0
26/09:00am 14.9 10.5 6.7 58 4.0 S 19 24 10 13 - - 0.0
26/08:30am 13.6 8.8 5.7 59 3.7 SSE 20 30 11 16 - - 0.0
26/08:00am 12.7 8.4 5.4 61 3.4 S 17 26 9 14 - - 0.0
26/07:30am 11.7 9.0 5.6 66 2.8 S 9 13 5 7 - - 0.0
26/07:00am 10.4 8.2 5.2 70 2.4 S 6 9 3 5 - - 0.0
26/06:30am 10.1 7.2 4.9 70 2.4 S 9 11 5 6 - - 0.0
26/06:00am 11.0 7.3 4.7 65 2.9 S 13 17 7 9 - - 0.0
26/05:30am 11.2 6.8 4.7 64 3.0 SSE 17 24 9 13 - - 0.0
26/05:00am 11.6 6.8 4.6 62 3.2 S 19 28 10 15 - - 0.0
26/04:30am 11.5 7.5 4.9 64 3.0 S 15 22 8 12 - - 0.0
26/04:00am 11.3 7.6 4.7 64 3.0 S 13 17 7 9 - - 0.0
26/03:30am 11.8 8.1 4.5 61 3.3 S 13 17 7 9 - - 0.0
26/03:00am 12.0 8.7 4.7 61 3.3 S 11 17 6 9 - - 0.0
26/02:30am 12.2 9.0 5.1 62 3.3 SSE 11 15 6 8 - - 0.0
26/02:00am 13.0 9.1 5.4 60 3.6 SSE 15 20 8 11 - - 0.0
26/01:30am 13.4 10.1 6.3 62 3.4 SSE 13 20 7 11 - - 0.0
26/01:00am 13.7 10.0 6.1 60 3.6 SSE 15 20 8 11 - - 0.0
26/12:30am 14.4 10.3 6.3 58 3.9 SSE 17 24 9 13 - - 0.0
26/12:00am 14.9 10.4 6.0 55 4.3 SSE 19 24 10 13 - - 0.0
 
Date/Time
EDT
Temp
°C
App
Temp
°C
Dew
Point
Rel
Hum
%
Delta-T
°C
Wind Press
QNH
hPa
Press
MSL
hPa
Rain
since 9 am
mm
Dir
 
Spd
km/h
Gust
km/h
Spd
kts
Gust
kts
25/11:30pm 15.1 10.9 5.9 54 4.4 SSE 17 22 9 12 - - 0.0
25/11:00pm 15.6 11.0 3.7 45 5.5 SSE 17 22 9 12 - - 0.0
25/10:30pm 16.1 11.2 3.9 44 5.7 SSE 19 30 10 16 - - 0.0
25/10:00pm 16.8 11.3 3.8 42 6.1 SSE 22 32 12 17 - - 0.0
25/09:30pm 17.6 12.7 3.9 40 6.5 SSE 19 28 10 15 - - 0.0
25/09:00pm 18.3 13.1 3.4 37 7.0 S 20 28 11 15 - - 0.0
25/08:30pm 19.7 14.1 1.2 29 8.4 S 20 28 11 15 - - 0.0
25/08:00pm 20.9 15.3 1.2 27 9.0 S 20 28 11 15 - - 0.0
25/07:30pm 22.3 16.6 0.8 24 9.9 SSW 20 32 11 17 - - 0.0
25/07:00pm 22.9 16.8 0.7 23 10.2 SW 22 35 12 19 - - 0.0
25/06:30pm 23.1 16.4 1.4 24 10.2 SW 26 39 14 21 - - 0.0
25/06:00pm 23.5 17.8 0.6 22 10.6 SW 20 30 11 16 - - 0.0
25/05:30pm 23.4 16.8 -0.1 21 10.7 SSW 24 41 13 22 - - 0.0
25/05:00pm 24.0 17.9 0.4 21 10.9 SW 22 33 12 18 - - 0.0
25/04:30pm 23.6 19.1 0.0 21 10.8 S 13 17 7 9 - - 0.0
25/04:00pm 23.9 18.0 1.5 23 10.6 SW 22 35 12 19 - - 0.0
25/03:30pm 23.3 16.1 0.4 22 10.5 S 28 33 15 18 - - 0.0
25/03:00pm 23.9 17.8 0.3 21 10.9 SW 22 37 12 20 - - 0.0
25/02:30pm 23.7 17.8 1.4 23 10.5 SW 22 32 12 17 - - 0.0
25/02:00pm 23.1 17.2 1.4 24 10.2 WSW 22 35 12 19 - - 0.0
25/01:30pm 22.7 18.8 3.3 28 9.4 S 13 26 7 14 - - 0.0
25/01:00pm 22.0 16.5 4.1 31 8.7 SW 22 33 12 18 - - 0.0
25/12:30pm 21.3 15.3 3.5 31 8.6 SW 24 37 13 20 - - 0.0
25/12:00pm 21.2 16.2 4.7 34 8.1 WSW 20 32 11 17 - - 0.0
25/11:30am 20.8 14.0 5.2 36 7.7 WSW 30 39 16 21 - - 0.0
25/11:00am 20.3 16.0 7.0 42 6.8 WSW 19 28 10 15 - - 0.0
25/10:30am 20.3 16.1 8.3 46 6.3 SW 20 32 11 17 - - 0.0
25/10:00am 19.5 14.9 8.2 48 5.9 S 22 30 12 16 - - 0.0
25/09:30am 20.2 15.9 9.2 49 5.9 SW 22 30 12 16 - - 0.0
25/09:00am 19.4 15.5 9.6 53 5.2 SW 20 30 11 16 - - 0.0
25/08:30am 18.5 14.3 9.8 57 4.6 WSW 22 30 12 16 - - 0.0
25/08:00am 17.5 14.3 7.0 50 5.3 WSW 13 19 7 10 - - 0.0
25/07:30am 16.8 13.2 6.9 52 4.9 W 15 19 8 10 - - 0.0
25/07:00am 13.9 11.5 7.2 64 3.3 WNW 9 11 5 6 - - 0.0
25/06:30am 13.3 12.9 13.0 98 0.2 NW 7 9 4 5 - - 0.0
25/06:00am 13.9 11.1 2.2 45 5.2 WNW 6 7 3 4 - - 0.0
25/05:30am 14.8 12.9 7.4 61 3.7 WNW 7 9 4 5 - - 0.0
25/05:00am 16.4 14.1 7.6 56 4.4 W 9 13 5 7 - - 0.0
25/04:30am 16.2 13.5 7.4 56 4.4 W 11 19 6 10 - - 0.0
25/04:00am 17.2 14.4 7.0 51 5.1 W 11 15 6 8 - - 0.0
25/03:30am 18.0 14.8 6.8 48 5.6 W 13 17 7 9 - - 0.0
25/03:00am 18.7 14.8 6.9 46 6.0 W 17 26 9 14 - - 0.0
25/02:30am 19.5 15.0 6.9 44 6.4 WSW 20 32 11 17 - - 0.0
25/02:00am 20.0 15.4 6.7 42 6.7 WSW 20 30 11 16 - - 0.0
25/01:30am 20.7 15.7 6.6 40 7.2 WSW 22 30 12 16 - - 0.0
25/01:00am 21.2 17.0 5.9 37 7.7 W 17 26 9 14 - - 0.0
25/12:30am 22.0 17.3 5.0 33 8.5 W 19 26 10 14 - - 0.0
25/12:00am 23.3 18.2 4.3 29 9.4 WSW 20 28 11 15 - - 0.0
 
Date/Time
EDT
Temp
°C
App
Temp
°C
Dew
Point
Rel
Hum
%
Delta-T
°C
Wind Press
QNH
hPa
Press
MSL
hPa
Rain
since 9 am
mm
Dir
 
Spd
km/h
Gust
km/h
Spd
kts
Gust
kts
24/11:30pm 23.4 18.5 3.9 28 9.6 W 19 24 10 13 - - 0.0
24/11:00pm 24.0 18.8 3.3 26 10.1 W 20 24 11 13 - - 0.0
24/10:30pm 24.2 18.9 2.9 25 10.3 W 20 26 11 14 - - 0.0
24/10:00pm 24.3 19.8 1.9 23 10.7 W 15 17 8 9 - - 0.0
24/09:30pm 25.4 20.6 0.1 19 11.8 W 15 20 8 11 - - 0.0
24/09:00pm 26.3 21.6 0.9 19 12.1 W 15 24 8 13 - - 0.0
24/08:30pm 27.9 23.0 2.2 19 12.6 W 17 24 9 13 - - 0.0
24/08:00pm 29.6 23.6 3.5 19 13.3 W 24 37 13 20 - - 0.0
24/07:30pm 30.8 26.4 7.3 23 12.8 W 20 30 11 16 - - 0.0
24/07:00pm 31.2 26.0 8.8 25 12.5 WNW 26 35 14 19 - - 0.0
24/06:30pm 32.2 27.2 9.7 25 12.8 W 26 37 14 20 - - 0.0
24/06:00pm 31.9 26.9 9.4 25 12.8 NW 26 33 14 18 - - 0.0
24/05:30pm 32.2 28.4 9.7 25 12.8 NNW 20 28 11 15 - - 0.0
24/05:00pm 31.8 27.5 9.3 25 12.7 WNW 22 32 12 17 - - 0.0

Other Formats:

Comma delimited format used in spreadsheet applications
http://www.bom.gov.au/fwo/IDV60801/IDV60801.95836.axf

JavaScript Object Notation format (JSON) in row-major order
http://www.bom.gov.au/fwo/IDV60801/IDV60801.95836.json